Airfield :
LOGIN :

Register | Disclaimer

   EN    FR    IT 

 










Legend :    VFR   Marginal VFR   IFR   Intensive IFR   Very Intensive IFR
Visi :
Ceiling :
>= 8 km
>= 3000ft
5 to 8 km
1000 to 3000 ft
1500m to 5 km
500 to 1000 ft
800 to 1500m
200 to 500 ft
< 800m
< 200 ft
Symbols :   Thunderstorms  Fog  Heavy snow  Heavy precipitations  Wind > 20 kt
SIGMETs :     Misc.  Thunderstorms  Icing  Turbulence  Mountain Waves  Volcanic Ashes






- Airport Elevation : 250 ft


LERI - Alcantarilla

CURRENT METAR :
  • 291100Z 00000KT CAVOK 23/09 Q1007 NOSIG

EXPIRED METARs :
  • 291030Z VRB02KT CAVOK 23/10 Q1007 NOSIG
  • 291000Z VRB02KT CAVOK 23/10 Q1008 NOSIG
  • 290930Z 12003KT 090V160 CAVOK 22/10 Q1008 NOSIG
  • 290900Z VRB02KT CAVOK 22/11 Q1008 NOSIG
  • 290830Z 19003KT 150V280 CAVOK 22/10 Q1008 NOSIG

TAF TAF LERI
Valid from the 29 at 06:00 until the 30 at 06:00 UTC


290500Z 2906/3006 VRB03KT CAVOK TX30/2915Z TN18/2906Z
BECMG 2912/2915 33012KT
PROB30
TEMPO 2916/2921 33016G26KT



MET'MAP, your aeronautical weather chart ! - Copyright ORBIFLY December 2007 - Disclaimer

ORBIFLY MET'MAP TEAM :

Programming & Development : Alexandra Zaïnal
Original concept : Baudouin d'Aumeries
Technical & hardware support : Manuel Goepfert
Assistance : Marc-Olivier Méhu




SOURCES & CREDITS :

   NOAA